• Join FlightAware (Why Join?)
  • Login
  • US Flag 
04:45AM EDT


 

Airport Tracker/Info


-or-


 

Live Flight TrackerFlight Track Log ✈ SKW2604 ✈ 18-May-2013 ✈ KSBA - KLAX

Flight Track Log - Related Links

Times and Time Zones

All times are in EDT time to prevent confusion due to time zone crossing. See the SKW2604 flight status page for this flight to view local times or setup timezone preferences in your user account.

Time Position Orientation Groundspeed Altitude Reporting Facility
EDT Latitude Longitude Course Direction KTS MPH feet Rate Location/Type
12:48PM 34.4264 -119.8719 262° West 159 183 1,000  Level Los Angeles Center
12:49PM 34.4242 -119.8908 262° West 175 201 1,500 2,580 Climbing Los Angeles Center
12:50PM 34.3761 -119.9089 197° South 233 268 4,400 2,100 Climbing Los Angeles Center
12:51PM 34.2903 -119.8553 153° Southeast 288 331 6,300 1,500 Climbing Los Angeles Center
12:52PM 34.2189 -119.8097 152° Southeast 292 336 7,900 1,200 Climbing Los Angeles Center
12:53PM 34.2019 -119.7142 102° East 292 336 8,900 1,500 Climbing Los Angeles Center
12:54PM 34.1883 -119.6119 99° East 305 351 11,000 960 Climbing Los Angeles Center
12:55PM 34.1733 -119.4936 99° East 359 413 11,000  Level Los Angeles Center
12:56PM 34.1533 -119.3372 99° East 391 450 11,000  Level Los Angeles Center
12:57PM 34.1372 -119.2178 99° East 360 414 11,000  Level Los Angeles Center
12:58PM 34.1231 -119.1139 99° East 302 348 11,000  Level Los Angeles Center
12:59PM 34.1069 -119.0103 101° East 314 361 11,000  Level Los Angeles Center
01:00PM 34.0883 -118.9067 102° East 314 361 11,000 -480 Level Los Angeles Center
01:01PM 34.0711 -118.8089 102° East 301 346 10,100 -540 Descending Los Angeles Center
01:02PM 34.0500 -118.6925 102° East 307 353 10,000 -420 Descending Los Angeles Center
01:03PM 34.0325 -118.5867 101° East 302 348 9,300 -960 Descending Los Angeles Center
01:04PM 34.0147 -118.4872 102° East 302 348 8,000 -1,260 Descending Los Angeles Center
01:05PM 34.0186 -118.3953 87° East 290 334 6,700 -1,320 Descending Los Angeles Center
01:06PM 34.0283 -118.3042 83° East 277 319 5,300 -1,260 Descending Los Angeles Center
01:07PM 34.0369 -118.2264 82° East 245 282 4,100 -1,080 Descending Los Angeles Center
01:08PM 34.0236 -118.1742 107° East 193 222 3,100 -780 Descending Los Angeles Center
01:09PM 33.9683 -118.1683 175° South 179 206 2,600 -300 Descending Los Angeles Center
01:10PM 33.9544 -118.2117 249° West 179 206 2,600 -300 Level Los Angeles Center
01:12PM 33.9481 -118.2819 264° West 177 204 2,000 -780 Descending Los Angeles Center
01:13PM 33.9433 -118.3336 264° West 168 193 1,100 -900 Descending Los Angeles Center
01:14PM 33.9386 -118.3811 263° West 155 178 200 -900 Descending Los Angeles Center
01:16PM 33.9333 -118.4000 237° Southwest  Level FlightAware Approximate